サル島 の空港の天気 - METARとTAF

アミルカル・カブラル国際空港 ( GVAC / SID ) - カーボベルデ サル島
飛行場実況気象(Metar)
観測時間10/16 05:00 CVT (10/16 06:00 UTC)
風向・風速東北東 2m/s
視程10km以上
天気現象
少しの雲 雲底高度 400m
気温24℃
湿度83%
気圧1015hPa
METARGVAC 160600Z 07004KT 9999 FEW013 24/21 Q1015 NOSIG
過去の天気等 Google飛行場航空写真 Wunderground天気予報

過去48時間のMETAR

飛行場予報(TAF)
発表時間: 10/16 04:00 CVT (10/16 05:00 UTC)
予報対象時間: 16日5時 CVT ~ 17日11時 CVT
風向・風速北東 6m/s
視程10km以上
全天の4割程度の雲 雲底高度 460m
TAF GVAC 160500Z 1606/1712 04012KT 9999 SCT015